createdAt,value
2019-03-16T00:00:03.664Z,1007.45
2019-03-16T00:01:02.466Z,1007.45
2019-03-16T00:02:01.661Z,1007.45
2019-03-16T00:03:01.907Z,1007.45
2019-03-16T00:04:02.149Z,1007.4
2019-03-16T00:05:02.445Z,1007.4
2019-03-16T00:06:02.574Z,1007.4
2019-03-16T00:07:01.721Z,1007.4
2019-03-16T00:08:01.987Z,1007.3
2019-03-16T00:09:02.245Z,1007.3
2019-03-16T00:10:02.563Z,1007.3
2019-03-16T00:11:01.718Z,1007.3
2019-03-16T00:12:02.255Z,1007.42
2019-03-16T00:13:02.155Z,1007.42
2019-03-16T00:14:02.483Z,1007.42
2019-03-16T00:15:02.679Z,1007.42
2019-03-16T00:16:01.841Z,1007.39
2019-03-16T00:17:02.555Z,1007.39
2019-03-16T00:18:01.810Z,1007.39
2019-03-16T00:19:02.593Z,1007.39
2019-03-16T00:20:01.859Z,1007.43
2019-03-16T00:21:02.089Z,1007.43
2019-03-16T00:22:02.288Z,1007.43
2019-03-16T00:23:02.582Z,1007.43
2019-03-16T00:24:01.695Z,1007.32
2019-03-16T00:25:02.018Z,1007.32
2019-03-16T00:26:02.158Z,1007.32
2019-03-16T00:27:02.393Z,1007.32
2019-03-16T00:28:01.672Z,1007.26
2019-03-16T00:29:01.920Z,1007.26
2019-03-16T00:30:02.257Z,1007.26
2019-03-16T00:31:02.454Z,1007.26
2019-03-16T00:32:14.096Z,1007.43
2019-03-16T00:33:01.859Z,1007.43
2019-03-16T00:34:02.066Z,1007.43
2019-03-16T00:35:02.322Z,1007.43
2019-03-16T00:36:02.562Z,1007.33
2019-03-16T00:37:01.729Z,1007.33
2019-03-16T00:38:02.041Z,1007.33
2019-03-16T00:39:02.228Z,1007.33
2019-03-16T00:40:02.491Z,1007.46
2019-03-16T00:41:02.654Z,1007.46
2019-03-16T00:42:01.842Z,1007.46
2019-03-16T00:43:02.128Z,1007.46
2019-03-16T00:44:02.382Z,1007.42
2019-03-16T00:45:02.626Z,1007.42
2019-03-16T00:46:02.434Z,1007.42
2019-03-16T00:47:01.674Z,1007.42
2019-03-16T00:48:01.854Z,1007.49
2019-03-16T00:49:02.240Z,1007.49
2019-03-16T00:50:02.313Z,1007.49
2019-03-16T00:51:02.626Z,1007.49
2019-03-16T00:52:01.834Z,1007.42
2019-03-16T00:53:02.102Z,1007.42
2019-03-16T00:54:02.337Z,1007.42
2019-03-16T00:55:02.578Z,1007.42
2019-03-16T00:56:01.790Z,1007.39
2019-03-16T00:57:02.059Z,1007.39
2019-03-16T00:58:02.285Z,1007.39
2019-03-16T00:59:02.584Z,1007.39
2019-03-16T01:00:03.800Z,1007.41
2019-03-16T01:01:02.582Z,1007.41
2019-03-16T01:02:01.808Z,1007.41
2019-03-16T01:03:02.046Z,1007.41
2019-03-16T01:04:02.281Z,1007.39
2019-03-16T01:05:02.534Z,1007.39
2019-03-16T01:06:01.748Z,1007.39
2019-03-16T01:07:01.941Z,1007.39
2019-03-16T01:08:02.255Z,1007.39
2019-03-16T01:09:02.497Z,1007.39
2019-03-16T01:10:01.670Z,1007.39
2019-03-16T01:11:01.816Z,1007.39
2019-03-16T01:12:01.989Z,1007.42
2019-03-16T01:13:02.179Z,1007.42
2019-03-16T01:14:02.463Z,1007.42
2019-03-16T01:15:01.764Z,1007.42
2019-03-16T01:16:01.918Z,1007.51
2019-03-16T01:17:02.151Z,1007.51
2019-03-16T01:18:02.601Z,1007.51
2019-03-16T01:19:01.872Z,1007.42
2019-03-16T01:20:02.137Z,1007.42
2019-03-16T01:21:02.376Z,1007.42
2019-03-16T01:22:02.671Z,1007.42
2019-03-16T01:23:01.825Z,1007.41
2019-03-16T01:24:02.029Z,1007.41
2019-03-16T01:25:02.337Z,1007.41
2019-03-16T01:26:02.503Z,1007.41
2019-03-16T01:27:01.831Z,1007.32
2019-03-16T01:28:01.937Z,1007.32
2019-03-16T01:29:02.150Z,1007.32
2019-03-16T01:30:02.401Z,1007.32
2019-03-16T01:31:01.625Z,1007.47
2019-03-16T01:32:01.864Z,1007.47
2019-03-16T01:33:02.036Z,1007.47
2019-03-16T01:34:02.318Z,1007.47
2019-03-16T01:35:02.618Z,1007.27
2019-03-16T01:36:01.790Z,1007.27
2019-03-16T01:37:02.096Z,1007.27
2019-03-16T01:38:02.434Z,1007.27
2019-03-16T01:39:02.440Z,1007.19
2019-03-16T01:40:01.763Z,1007.19
2019-03-16T01:41:01.931Z,1007.19
2019-03-16T01:42:02.213Z,1007.19
2019-03-16T01:43:02.419Z,1007.22
2019-03-16T01:44:01.724Z,1007.22
2019-03-16T01:45:01.883Z,1007.22
2019-03-16T01:46:02.055Z,1007.22
2019-03-16T01:47:02.259Z,1007.26
2019-03-16T01:48:02.465Z,1007.26
2019-03-16T01:49:01.743Z,1007.26
2019-03-16T01:50:02.047Z,1007.26
2019-03-16T01:51:02.188Z,1007.15
2019-03-16T01:52:02.446Z,1007.15
2019-03-16T01:53:02.627Z,1007.15
2019-03-16T01:54:01.799Z,1007.15
2019-03-16T01:55:02.061Z,1007.1
2019-03-16T01:56:02.309Z,1007.1
2019-03-16T01:57:02.588Z,1007.1
2019-03-16T01:58:01.743Z,1007.1
2019-03-16T01:59:01.948Z,1007.02
2019-03-16T02:00:04.824Z,1007.02
2019-03-16T02:01:01.692Z,1007.02
2019-03-16T02:02:01.995Z,1007.02
2019-03-16T02:03:02.267Z,1006.94
2019-03-16T02:04:02.432Z,1006.94
2019-03-16T02:05:01.713Z,1006.94
2019-03-16T02:06:01.874Z,1006.94
2019-03-16T02:07:02.109Z,1006.96
2019-03-16T02:08:02.325Z,1006.96
2019-03-16T02:09:02.476Z,1006.96
2019-03-16T02:10:01.691Z,1006.96
2019-03-16T02:11:02.610Z,1006.97
2019-03-16T02:12:01.722Z,1006.97
2019-03-16T02:13:02.035Z,1006.97
2019-03-16T02:14:02.081Z,1006.97
2019-03-16T02:15:02.469Z,1006.83
2019-03-16T02:16:11.857Z,1006.83
2019-03-16T02:17:01.780Z,1006.83
2019-03-16T02:18:02.101Z,1006.83
2019-03-16T02:19:02.291Z,1006.82
2019-03-16T02:20:02.631Z,1006.82
2019-03-16T02:21:01.858Z,1006.82
2019-03-16T02:22:02.022Z,1006.82
2019-03-16T02:23:02.298Z,1006.7
2019-03-16T02:24:02.540Z,1006.7
2019-03-16T02:25:01.781Z,1006.7
2019-03-16T02:26:02.112Z,1006.7
2019-03-16T02:27:02.259Z,1006.76
2019-03-16T02:28:02.502Z,1006.76
2019-03-16T02:29:01.749Z,1006.76
2019-03-16T02:30:01.987Z,1006.76
2019-03-16T02:31:02.459Z,1006.75
2019-03-16T02:32:02.484Z,1006.75
2019-03-16T02:33:13.969Z,1006.75
2019-03-16T02:34:02.045Z,1006.75
2019-03-16T02:35:02.349Z,1006.6
2019-03-16T02:36:02.555Z,1006.6
2019-03-16T02:37:01.787Z,1006.6
2019-03-16T02:38:01.979Z,1006.6
2019-03-16T02:39:02.236Z,1006.59
2019-03-16T02:40:02.449Z,1006.59
2019-03-16T02:41:01.668Z,1006.59
2019-03-16T02:42:02.008Z,1006.59
2019-03-16T02:43:02.234Z,1006.69
2019-03-16T02:44:02.379Z,1006.69
2019-03-16T02:45:02.666Z,1006.69
2019-03-16T02:46:01.826Z,1006.69
2019-03-16T02:47:02.095Z,1006.66
2019-03-16T02:48:02.279Z,1006.66
2019-03-16T02:49:02.564Z,1006.66
2019-03-16T02:50:01.811Z,1006.66
2019-03-16T02:51:02.018Z,1006.79
2019-03-16T02:52:02.466Z,1006.79
2019-03-16T02:53:02.422Z,1006.79
2019-03-16T02:54:01.657Z,1006.79
2019-03-16T02:55:01.953Z,1006.67
2019-03-16T02:56:02.151Z,1006.67
2019-03-16T02:57:02.357Z,1006.67
2019-03-16T02:58:02.554Z,1006.65
2019-03-16T02:59:01.787Z,1006.65
2019-03-16T03:00:05.101Z,1006.65
2019-03-16T03:01:01.945Z,1006.65
2019-03-16T03:02:02.213Z,1006.73
2019-03-16T03:03:02.439Z,1006.73
2019-03-16T03:04:02.597Z,1006.73
2019-03-16T03:05:01.917Z,1006.73
2019-03-16T03:06:02.042Z,1006.78
2019-03-16T03:07:02.382Z,1006.78
2019-03-16T03:08:02.579Z,1006.78
2019-03-16T03:09:01.911Z,1006.78
2019-03-16T03:10:02.178Z,1006.56
2019-03-16T03:11:02.313Z,1006.56
2019-03-16T03:12:02.562Z,1006.56
2019-03-16T03:13:01.777Z,1006.56
2019-03-16T03:14:02.538Z,1006.39
2019-03-16T03:15:01.782Z,1006.39
2019-03-16T03:16:02.017Z,1006.39
2019-03-16T03:17:02.272Z,1006.39
2019-03-16T03:18:02.472Z,1006.34
2019-03-16T03:19:01.624Z,1006.34
2019-03-16T03:20:01.985Z,1006.34
2019-03-16T03:21:02.075Z,1006.34
2019-03-16T03:22:02.296Z,1006.43
2019-03-16T03:23:02.535Z,1006.43
2019-03-16T03:24:01.693Z,1006.43
2019-03-16T03:25:01.971Z,1006.43
2019-03-16T03:26:02.227Z,1006.31
2019-03-16T03:27:02.502Z,1006.31
2019-03-16T03:28:02.489Z,1006.31
2019-03-16T03:29:01.755Z,1006.31
2019-03-16T03:30:02.015Z,1006.31
2019-03-16T03:31:02.162Z,1006.31
2019-03-16T03:32:02.439Z,1006.31
2019-03-16T03:33:02.587Z,1006.31
2019-03-16T03:34:03.382Z,1006.36
2019-03-16T03:35:02.083Z,1006.36
2019-03-16T03:36:02.180Z,1006.36
2019-03-16T03:37:02.402Z,1006.36
2019-03-16T03:38:01.628Z,1006.22
2019-03-16T03:39:02.012Z,1006.22
2019-03-16T03:40:02.114Z,1006.22
2019-03-16T03:41:02.647Z,1006.22
2019-03-16T03:42:02.535Z,1006.11
2019-03-16T03:43:01.700Z,1006.11
2019-03-16T03:44:02.567Z,1006.11
2019-03-16T03:45:01.823Z,1006.11
2019-03-16T03:46:02.042Z,1005.98
2019-03-16T03:47:02.304Z,1005.98
2019-03-16T03:48:02.487Z,1005.98
2019-03-16T03:49:01.714Z,1005.98
2019-03-16T03:50:01.998Z,1005.93
2019-03-16T03:51:02.290Z,1005.93
2019-03-16T03:52:02.590Z,1005.93
2019-03-16T03:53:01.792Z,1005.93
2019-03-16T03:54:02.078Z,1005.75
2019-03-16T03:55:02.216Z,1005.75
2019-03-16T03:56:02.391Z,1005.75
2019-03-16T03:57:01.702Z,1005.75
2019-03-16T03:58:01.909Z,1005.65
2019-03-16T03:59:02.115Z,1005.65
2019-03-16T04:00:02.400Z,1005.65
2019-03-16T04:01:01.653Z,1005.65
2019-03-16T04:02:01.898Z,1005.52
2019-03-16T04:03:02.057Z,1005.52
2019-03-16T04:04:16.371Z,1005.52
2019-03-16T04:05:02.596Z,1005.52
2019-03-16T04:06:01.750Z,1005.57
2019-03-16T04:07:02.117Z,1005.57
2019-03-16T04:08:02.225Z,1005.57
2019-03-16T04:09:02.436Z,1005.57
2019-03-16T04:10:01.756Z,1005.44
2019-03-16T04:11:01.922Z,1005.44
2019-03-16T04:12:02.172Z,1005.44
2019-03-16T04:13:02.343Z,1005.44
2019-03-16T04:14:02.623Z,1005.46
2019-03-16T04:15:01.892Z,1005.46
2019-03-16T04:16:02.021Z,1005.46
2019-03-16T04:17:02.267Z,1005.46
2019-03-16T04:18:02.522Z,1005.46
2019-03-16T04:19:01.693Z,1005.46
2019-03-16T04:20:01.978Z,1005.46
2019-03-16T04:21:02.168Z,1005.46
2019-03-16T04:22:02.386Z,1005.45
2019-03-16T04:23:02.660Z,1005.45
2019-03-16T04:24:01.953Z,1005.45
2019-03-16T04:25:02.125Z,1005.45
2019-03-16T04:26:02.376Z,1005.34
2019-03-16T04:27:16.816Z,1005.34
2019-03-16T04:28:01.761Z,1005.34
2019-03-16T04:29:02.036Z,1005.34
2019-03-16T04:30:02.354Z,1005.42
2019-03-16T04:31:02.548Z,1005.42
2019-03-16T04:32:01.710Z,1005.42
2019-03-16T04:33:01.942Z,1005.42
2019-03-16T04:34:02.210Z,1005.37
2019-03-16T04:35:02.091Z,1005.37
2019-03-16T04:36:02.358Z,1005.37
2019-03-16T04:37:02.522Z,1005.37
2019-03-16T04:38:01.741Z,1005.31
2019-03-16T04:39:01.900Z,1005.31
2019-03-16T04:40:02.211Z,1005.31
2019-03-16T04:41:02.475Z,1005.27
2019-03-16T04:42:01.689Z,1005.27
2019-03-16T04:43:01.937Z,1005.27
2019-03-16T04:44:02.111Z,1005.27
2019-03-16T04:45:02.352Z,1005.24
2019-03-16T04:46:02.644Z,1005.24
2019-03-16T04:47:02.436Z,1005.24
2019-03-16T04:48:01.677Z,1005.24
2019-03-16T04:49:01.799Z,1005.07
2019-03-16T04:50:02.147Z,1005.07
2019-03-16T04:51:02.300Z,1005.07
2019-03-16T04:52:02.488Z,1005.07
2019-03-16T04:53:01.712Z,1005.05
2019-03-16T04:54:01.919Z,1005.05
2019-03-16T04:55:02.224Z,1005.05
2019-03-16T04:56:02.413Z,1005.05
2019-03-16T04:57:01.685Z,1005.06
2019-03-16T04:58:01.927Z,1005.06
2019-03-16T04:59:02.052Z,1005.06
2019-03-16T05:00:04.161Z,1005.06
2019-03-16T05:01:01.935Z,1005.07
2019-03-16T05:02:02.152Z,1005.07
2019-03-16T05:03:02.373Z,1005.07
2019-03-16T05:04:02.560Z,1005.07
2019-03-16T05:05:01.907Z,1005.12
2019-03-16T05:06:02.035Z,1005.12
2019-03-16T05:07:02.230Z,1005.12
2019-03-16T05:08:02.447Z,1005.12
2019-03-16T05:09:01.656Z,1005.15
2019-03-16T05:10:01.915Z,1005.15
2019-03-16T05:11:02.042Z,1005.15
2019-03-16T05:12:02.287Z,1005.15
2019-03-16T05:13:02.499Z,1004.95
2019-03-16T05:14:01.727Z,1004.95
2019-03-16T05:15:01.954Z,1004.95
2019-03-16T05:16:02.225Z,1004.95
2019-03-16T05:17:02.445Z,1005.04
2019-03-16T05:18:01.637Z,1005.04
2019-03-16T05:19:01.923Z,1005.04
2019-03-16T05:20:02.179Z,1005.04
2019-03-16T05:21:02.361Z,1004.95
2019-03-16T05:22:02.584Z,1004.95
2019-03-16T05:23:02.275Z,1004.95
2019-03-16T05:24:03.358Z,1004.95
2019-03-16T05:25:01.870Z,1004.71
2019-03-16T05:26:01.969Z,1004.71
2019-03-16T05:27:02.149Z,1004.71
2019-03-16T05:28:02.392Z,1004.71
2019-03-16T05:29:02.607Z,1004.71
2019-03-16T05:30:01.854Z,1004.71
2019-03-16T05:31:01.971Z,1004.71
2019-03-16T05:32:02.189Z,1004.71
2019-03-16T05:33:02.386Z,1004.71
2019-03-16T05:34:02.604Z,1004.71
2019-03-16T05:35:01.825Z,1004.71
2019-03-16T05:36:02.017Z,1004.71
2019-03-16T05:37:02.144Z,1004.71
2019-03-16T05:38:02.495Z,1004.71
2019-03-16T05:39:02.581Z,1004.71
2019-03-16T05:40:01.825Z,1004.71
2019-03-16T05:41:02.002Z,1004.71
2019-03-16T05:42:05.732Z,1004.71
2019-03-16T05:43:02.576Z,1004.71
2019-03-16T05:44:01.774Z,1004.71
2019-03-16T05:45:02.058Z,1004.71
2019-03-16T05:46:02.276Z,1004.71
2019-03-16T05:47:02.540Z,1004.71
2019-03-16T05:48:01.812Z,1004.71
2019-03-16T05:49:01.941Z,1004.71
2019-03-16T05:50:02.165Z,1004.71
2019-03-16T05:51:02.338Z,1004.71
2019-03-16T05:52:02.505Z,1004.71
2019-03-16T05:53:01.731Z,1004.71
2019-03-16T05:54:02.018Z,1004.71
2019-03-16T05:55:02.161Z,1004.71
2019-03-16T05:56:02.379Z,1004.71
2019-03-16T05:57:02.618Z,1004.71
2019-03-16T05:58:01.843Z,1004.71
2019-03-16T05:59:02.019Z,1004.71
2019-03-16T06:00:03.634Z,1004.71
2019-03-16T06:01:02.364Z,1004.71
2019-03-16T06:02:02.646Z,1004.71
2019-03-16T06:03:01.819Z,1004.71
2019-03-16T06:04:02.066Z,1004.71
2019-03-16T06:05:11.495Z,1004.71
2019-03-16T06:06:02.517Z,1004.71
2019-03-16T06:07:01.794Z,1004.71
2019-03-16T06:08:02.052Z,1004.71
2019-03-16T06:09:02.234Z,1004.71
2019-03-16T06:10:02.559Z,1004.71
2019-03-16T06:11:01.847Z,1004.71
2019-03-16T06:12:01.968Z,1004.71
2019-03-16T06:13:02.210Z,1004.71
2019-03-16T06:14:02.415Z,1004.71
2019-03-16T06:15:01.649Z,1004.71
2019-03-16T06:16:01.899Z,1004.71
2019-03-16T06:17:01.971Z,1004.71
2019-03-16T06:18:02.205Z,1004.71
2019-03-16T06:19:02.413Z,1004.71
2019-03-16T06:20:01.772Z,1004.71
2019-03-16T06:21:02.004Z,1004.71
2019-03-16T06:22:02.132Z,1004.71
2019-03-16T06:23:02.327Z,1004.71
2019-03-16T06:24:02.342Z,1004.71
2019-03-16T06:25:02.666Z,1004.71
2019-03-16T06:26:01.757Z,1004.71
2019-03-16T06:27:02.002Z,1004.71
2019-03-16T06:28:02.223Z,1004.71
2019-03-16T06:29:02.416Z,1004.71
2019-03-16T06:30:01.686Z,1004.71
2019-03-16T06:31:01.800Z,1004.71
2019-03-16T06:32:02.120Z,1004.71
2019-03-16T06:33:02.243Z,1004.71
2019-03-16T06:34:02.469Z,1004.71
2019-03-16T06:35:01.750Z,1004.71
2019-03-16T06:36:01.880Z,1004.71
2019-03-16T06:37:02.075Z,1004.71
2019-03-16T06:38:02.164Z,1004.71
2019-03-16T06:39:02.381Z,1004.71
2019-03-16T06:40:02.655Z,1004.71
2019-03-16T06:41:01.840Z,1004.71
2019-03-16T06:42:02.036Z,1004.71
2019-03-16T06:43:02.219Z,1004.71
2019-03-16T06:44:02.431Z,1004.71
2019-03-16T06:45:01.672Z,1004.71
2019-03-16T06:46:01.860Z,1004.71
2019-03-16T06:47:02.040Z,1004.71
2019-03-16T06:48:02.265Z,1004.71
2019-03-16T06:49:02.501Z,1004.71
2019-03-16T06:50:01.921Z,1004.71
2019-03-16T06:51:02.012Z,1004.71
2019-03-16T06:52:02.151Z,1004.71
2019-03-16T06:53:02.348Z,1004.71
2019-03-16T06:54:02.600Z,1004.71
2019-03-16T06:55:01.951Z,1004.71
2019-03-16T06:56:02.096Z,1004.71
2019-03-16T06:57:02.313Z,1004.71
2019-03-16T06:58:02.546Z,1004.71
2019-03-16T06:59:01.753Z,1004.71
2019-03-16T07:00:04.240Z,1004.71
2019-03-16T07:01:01.651Z,1004.71
2019-03-16T07:02:01.900Z,1004.71
2019-03-16T07:03:02.133Z,1004.71
2019-03-16T07:04:02.372Z,1004.71
2019-03-16T07:05:02.690Z,1004.71
2019-03-16T07:06:01.895Z,1004.71
2019-03-16T07:07:02.114Z,1004.71
2019-03-16T07:08:02.326Z,1004.71
2019-03-16T07:09:02.262Z,1004.71
2019-03-16T07:10:02.434Z,1004.71
2019-03-16T07:11:01.676Z,1004.71
2019-03-16T07:12:01.812Z,1004.71
2019-03-16T07:13:02.092Z,1004.71
2019-03-16T07:14:01.637Z,1004.71
2019-03-16T07:15:01.937Z,1004.71
2019-03-16T07:16:02.151Z,1004.71
2019-03-16T07:17:02.929Z,1004.71
2019-03-16T07:18:02.497Z,1004.71
2019-03-16T07:19:01.755Z,1004.71
2019-03-16T07:20:02.019Z,1004.71
2019-03-16T07:21:02.273Z,1004.71
2019-03-16T07:22:02.569Z,1004.71
2019-03-16T07:23:01.769Z,1004.71
2019-03-16T07:24:01.889Z,1004.71
2019-03-16T07:25:02.234Z,1004.71
2019-03-16T07:26:15.409Z,1004.71
2019-03-16T07:27:02.558Z,1004.71
2019-03-16T07:28:01.700Z,1004.71
2019-03-16T07:29:01.891Z,1004.71
2019-03-16T07:30:02.134Z,1004.71
2019-03-16T07:31:02.380Z,1004.71
2019-03-16T07:32:01.741Z,1004.71
2019-03-16T07:33:01.895Z,1004.71
2019-03-16T07:34:02.059Z,1004.71
2019-03-16T07:35:02.324Z,1004.71
2019-03-16T07:36:02.585Z,1004.71
2019-03-16T07:37:01.864Z,1004.71
2019-03-16T07:38:02.018Z,1004.71
2019-03-16T07:39:01.853Z,1004.71
2019-03-16T07:40:02.312Z,1004.71
2019-03-16T07:41:02.268Z,1004.71
2019-03-16T07:42:02.451Z,1004.71
2019-03-16T07:43:02.573Z,1004.71
2019-03-16T07:44:01.810Z,1004.71
2019-03-16T07:45:09.264Z,1004.71
2019-03-16T07:46:02.234Z,1004.71
2019-03-16T07:47:02.542Z,1004.71
2019-03-16T07:48:02.619Z,1004.71
2019-03-16T07:49:01.772Z,1004.71
2019-03-16T07:50:02.041Z,1004.71
2019-03-16T07:51:02.072Z,1004.71
2019-03-16T07:52:02.313Z,1004.71
2019-03-16T07:53:02.556Z,1004.71
2019-03-16T07:54:02.466Z,1004.71
2019-03-16T07:55:01.753Z,1004.71
2019-03-16T07:56:01.913Z,1004.71
2019-03-16T07:57:02.139Z,1004.71
2019-03-16T07:58:02.389Z,1004.71
2019-03-16T07:59:01.620Z,1004.71
2019-03-16T08:00:03.783Z,1004.71
2019-03-16T08:01:03.988Z,1004.71
2019-03-16T08:02:02.456Z,1004.71
2019-03-16T08:03:01.662Z,1004.71
2019-03-16T08:04:01.919Z,1004.71
2019-03-16T08:05:02.268Z,1004.71
2019-03-16T08:06:02.496Z,1004.71
2019-03-16T08:07:01.710Z,1004.71
2019-03-16T08:08:01.891Z,1004.71
2019-03-16T08:09:02.226Z,1004.71
2019-03-16T08:10:03.813Z,1004.71
2019-03-16T08:11:02.564Z,1004.71
2019-03-16T08:12:01.743Z,1004.71
2019-03-16T08:13:01.969Z,1004.71
2019-03-16T08:14:02.151Z,1004.71
2019-03-16T08:15:02.514Z,1004.71
2019-03-16T08:16:02.674Z,1004.71
2019-03-16T08:17:01.823Z,1004.71
2019-03-16T08:18:02.056Z,1004.71
2019-03-16T08:19:02.293Z,1004.71
2019-03-16T08:20:02.588Z,1004.71
2019-03-16T08:21:01.714Z,1004.71
2019-03-16T08:22:01.859Z,1004.71
2019-03-16T08:23:02.058Z,1004.71
2019-03-16T08:24:02.298Z,1004.71
2019-03-16T08:25:02.546Z,1004.71
2019-03-16T08:26:01.869Z,1004.71
2019-03-16T08:27:01.945Z,1004.71
2019-03-16T08:28:02.199Z,1004.71
2019-03-16T08:29:02.420Z,1004.71
2019-03-16T08:30:01.678Z,1004.71
2019-03-16T08:31:01.819Z,1004.71
2019-03-16T08:32:02.015Z,1004.71
2019-03-16T08:33:02.248Z,1004.71
2019-03-16T08:34:02.418Z,1004.71
2019-03-16T08:35:02.666Z,1004.71
2019-03-16T08:36:01.862Z,1004.71
2019-03-16T08:37:02.016Z,1004.71
2019-03-16T08:38:02.227Z,1004.71
2019-03-16T08:39:02.409Z,1004.71
2019-03-16T08:40:01.696Z,1004.71
2019-03-16T08:41:01.884Z,1004.71
2019-03-16T08:42:01.988Z,1004.71
2019-03-16T08:43:02.290Z,1004.71
2019-03-16T08:44:02.469Z,1004.71
2019-03-16T08:45:01.802Z,1004.71
2019-03-16T08:46:01.890Z,1004.71
2019-03-16T08:47:02.130Z,1004.71
2019-03-16T08:48:03.039Z,1004.71
2019-03-16T08:49:02.379Z,1004.71
2019-03-16T08:50:06.998Z,1004.71
2019-03-16T08:51:01.751Z,1004.71
2019-03-16T08:52:02.025Z,1004.71
2019-03-16T08:53:09.530Z,1004.71
2019-03-16T08:54:02.312Z,1004.71
2019-03-16T08:55:02.586Z,1004.71
2019-03-16T08:56:01.790Z,1004.71
2019-03-16T08:57:02.023Z,1004.71
2019-03-16T08:58:06.783Z,1004.71
2019-03-16T08:59:02.481Z,1004.71
2019-03-16T09:00:04.218Z,1004.71
2019-03-16T09:01:02.146Z,1004.71
2019-03-16T09:02:02.300Z,1004.71
2019-03-16T09:03:02.523Z,1004.71
2019-03-16T09:04:01.773Z,1004.71
2019-03-16T09:05:02.077Z,1004.71
2019-03-16T09:06:02.181Z,1004.71
2019-03-16T09:07:02.333Z,1004.71
2019-03-16T09:08:09.915Z,1004.71
2019-03-16T09:09:01.726Z,1004.71
2019-03-16T09:10:02.040Z,1004.71
2019-03-16T09:11:02.293Z,1004.71
2019-03-16T09:12:02.435Z,1004.71
2019-03-16T09:13:02.658Z,1004.71
2019-03-16T09:14:01.923Z,1004.71
2019-03-16T09:15:02.080Z,1004.71
2019-03-16T09:16:02.333Z,1004.71
2019-03-16T09:17:02.438Z,1004.71
2019-03-16T09:18:01.657Z,1004.71
2019-03-16T09:19:01.890Z,1004.71
2019-03-16T09:20:02.148Z,1004.71
2019-03-16T09:21:02.394Z,1004.71
2019-03-16T09:22:02.172Z,1004.71
2019-03-16T09:23:02.388Z,1004.71
2019-03-16T09:24:02.135Z,1004.71
2019-03-16T09:25:02.404Z,1004.71
2019-03-16T09:26:02.670Z,1004.71
2019-03-16T09:27:01.785Z,1004.71
2019-03-16T09:28:01.968Z,1004.71
2019-03-16T09:29:15.443Z,1004.71
2019-03-16T09:30:02.484Z,1004.71
2019-03-16T09:31:01.716Z,1004.71
2019-03-16T09:32:01.767Z,1004.71
2019-03-16T09:33:01.997Z,1004.71
2019-03-16T09:34:02.135Z,1004.71
2019-03-16T09:35:02.353Z,1004.71
2019-03-16T09:36:02.535Z,1004.71
2019-03-16T09:37:01.760Z,1004.71
2019-03-16T09:38:01.942Z,1004.71
2019-03-16T09:39:02.165Z,1004.71
2019-03-16T09:40:02.435Z,1004.71
2019-03-16T09:41:02.568Z,1004.71
2019-03-16T09:42:01.678Z,1004.71
2019-03-16T09:43:01.834Z,1004.71
2019-03-16T09:44:02.512Z,1004.71
2019-03-16T09:45:02.260Z,1004.71
2019-03-16T09:46:02.481Z,1004.71
2019-03-16T09:47:02.605Z,1004.71
2019-03-16T09:48:01.824Z,1004.71
2019-03-16T09:49:01.938Z,1004.71
2019-03-16T09:50:02.189Z,1004.71
2019-03-16T09:51:02.367Z,1004.71
2019-03-16T09:52:02.407Z,1004.71
2019-03-16T09:53:01.653Z,1004.71
2019-03-16T09:54:02.152Z,1004.71
2019-03-16T09:55:02.090Z,1004.71
2019-03-16T09:56:02.246Z,1004.71
2019-03-16T09:57:02.611Z,1004.71
2019-03-16T09:58:01.677Z,1004.71
2019-03-16T09:59:01.902Z,1004.71
2019-03-16T10:00:05.158Z,1004.71
2019-03-16T10:01:01.932Z,1004.71
2019-03-16T10:02:02.094Z,1004.71
2019-03-16T10:03:02.324Z,1004.71
2019-03-16T10:04:02.454Z,1004.71
2019-03-16T10:05:02.625Z,1004.71
2019-03-16T10:06:01.889Z,1004.71
2019-03-16T10:07:02.131Z,1004.71
2019-03-16T10:08:02.342Z,1004.71
2019-03-16T10:09:02.520Z,1004.71
2019-03-16T10:10:01.803Z,1004.71
2019-03-16T10:11:05.868Z,1004.71
2019-03-16T10:12:02.105Z,1003.72
2019-03-16T10:13:02.228Z,1003.72
2019-03-16T10:14:07.926Z,1003.72
2019-03-16T10:15:02.615Z,1003.72
2019-03-16T10:16:01.835Z,1003.53
2019-03-16T10:17:02.036Z,1003.53
2019-03-16T10:18:02.236Z,1003.53
2019-03-16T10:19:02.452Z,1003.53
2019-03-16T10:20:01.712Z,1003.49
2019-03-16T10:21:01.992Z,1003.49
2019-03-16T10:22:02.170Z,1003.49
2019-03-16T10:23:02.408Z,1003.49
2019-03-16T10:24:02.528Z,1003.53
2019-03-16T10:25:01.776Z,1003.53
2019-03-16T10:26:02.097Z,1003.53
2019-03-16T10:27:02.193Z,1003.53
2019-03-16T10:28:02.506Z,1003.43
2019-03-16T10:29:01.645Z,1003.43
2019-03-16T10:30:01.944Z,1003.43
2019-03-16T10:31:01.998Z,1003.43
2019-03-16T10:32:02.131Z,1003.4
2019-03-16T10:33:02.338Z,1003.4
2019-03-16T10:34:02.660Z,1003.4
2019-03-16T10:35:02.328Z,1003.4
2019-03-16T10:36:02.251Z,1003.51
2019-03-16T10:37:02.429Z,1003.51
2019-03-16T10:38:01.667Z,1003.51
2019-03-16T10:39:01.925Z,1003.51
2019-03-16T10:40:02.076Z,1003.55
2019-03-16T10:41:02.223Z,1003.55
2019-03-16T10:42:02.384Z,1003.55
2019-03-16T10:43:01.659Z,1003.55
2019-03-16T10:44:01.862Z,1003.52
2019-03-16T10:45:01.889Z,1003.52
2019-03-16T10:46:02.135Z,1003.52
2019-03-16T10:47:02.380Z,1003.55
2019-03-16T10:48:01.620Z,1003.55
2019-03-16T10:49:01.850Z,1003.55
2019-03-16T10:50:02.591Z,1003.55
2019-03-16T10:51:01.827Z,1003.25
2019-03-16T10:52:02.145Z,1003.25
2019-03-16T10:53:02.280Z,1003.25
2019-03-16T10:54:02.531Z,1003.25
2019-03-16T10:55:01.671Z,1003.17
2019-03-16T10:56:01.894Z,1003.17
2019-03-16T10:57:04.773Z,1003.17
2019-03-16T10:58:02.390Z,1003.17
2019-03-16T10:59:02.604Z,1003.16
2019-03-16T11:00:03.842Z,1003.16
2019-03-16T11:04:48.065Z,1003.16
2019-03-16T11:05:01.892Z,1003.05
2019-03-16T11:05:07.555Z,1003.05
2019-03-16T11:05:15.656Z,1003.05
2019-03-16T11:07:02.071Z,1003.01
2019-03-16T11:08:02.378Z,1003.01
2019-03-16T11:08:14.788Z,1003.05
2019-03-16T11:09:02.596Z,1003.01
2019-03-16T11:10:01.828Z,1003.01
2019-03-16T11:11:02.060Z,1003.02
2019-03-16T11:12:02.196Z,1003.02
2019-03-16T11:13:02.392Z,1003.02
2019-03-16T11:14:07.776Z,1003.02
2019-03-16T11:15:01.888Z,1002.88
2019-03-16T11:16:02.038Z,1002.88
2019-03-16T11:17:02.197Z,1002.88
2019-03-16T11:18:02.398Z,1002.88
2019-03-16T11:19:02.529Z,1002.9
2019-03-16T11:20:01.810Z,1002.9
2019-03-16T11:21:01.971Z,1002.9
2019-03-16T11:22:02.227Z,1002.9
2019-03-16T11:23:02.389Z,1003.21
2019-03-16T11:24:02.547Z,1003.21
2019-03-16T11:25:02.045Z,1003.21
2019-03-16T11:26:02.206Z,1003.21
2019-03-16T11:27:02.416Z,1003.18
2019-03-16T11:28:01.915Z,1003.18
2019-03-16T11:29:09.755Z,1003.18
2019-03-16T11:30:02.420Z,1003.18
2019-03-16T11:31:01.595Z,1003
2019-03-16T11:32:01.762Z,1003
2019-03-16T11:33:01.939Z,1003
2019-03-16T11:34:02.100Z,1003
2019-03-16T11:35:02.434Z,1002.95
2019-03-16T11:36:02.517Z,1002.95
2019-03-16T11:37:01.720Z,1002.95
2019-03-16T11:38:01.922Z,1002.95
2019-03-16T11:39:02.053Z,1003.09
2019-03-16T11:40:02.329Z,1003.09
2019-03-16T11:41:02.680Z,1003.09
2019-03-16T11:42:02.526Z,1003.09
2019-03-16T11:43:02.197Z,1003.03
2019-03-16T11:44:01.932Z,1003.03
2019-03-16T11:45:02.238Z,1003.03
2019-03-16T11:46:03.333Z,1003.03
2019-03-16T11:47:02.542Z,1003
2019-03-16T11:48:01.754Z,1003
2019-03-16T11:49:01.948Z,1003
2019-03-16T11:50:02.168Z,1003
2019-03-16T11:51:02.329Z,1003.03
2019-03-16T11:52:02.484Z,1003.03
2019-03-16T11:53:01.675Z,1003.03
2019-03-16T11:54:01.867Z,1003.03
2019-03-16T11:55:02.112Z,1003.07
2019-03-16T11:56:02.246Z,1003.07
2019-03-16T11:57:02.437Z,1003.07
2019-03-16T11:58:01.605Z,1003.07
2019-03-16T11:59:01.928Z,1002.68
2019-03-16T12:00:05.168Z,1002.68
2019-03-16T12:01:01.992Z,1002.68
2019-03-16T12:02:06.260Z,1002.68
2019-03-16T12:03:02.361Z,1002.7
2019-03-16T12:04:01.572Z,1002.7
2019-03-16T12:05:02.580Z,1002.7
2019-03-16T12:06:02.000Z,1002.7
2019-03-16T12:07:02.272Z,1002.92
2019-03-16T12:08:02.482Z,1002.92